Accueil
METAR-TAF:

METAR-TAF

Aéroports :

Tokushima, Japon

latitude: 34-08N, longitude: 134-37E, altitude: 8 m

Observation

Le bulletin a été fait il y a 30 minutes, à 15:00 UTC
Vent 18 kt de nord/nord-est
Température 11°C
Humidité 71%
Pression 1015 hPa
Visibilité 10 km ou plus
Quelques nuages à une hauteur de 3000 ft
Nuages fragmentés

METAR: RJOS 041500Z 02018KT 9999 FEW030 BKN/// 11/06 Q1015

Heure: 00:30 (15:30 UTC)


TAF: absent

Observations et prévisions météorologiques de plus de 4000 aéroports (messages METAR et TAF).

Les stations disponibles sont représentées par des disques jaunes et rouges sur la carte.

Passer la souris dessus pour voir le nom de la station.

Cliquer dessus pour voir les observations et prévisions météorologiques.

Pour changer de carte: cliquez sur les boutons verts avec une croix noire pour zoomer, sur le bouton vert avec un tiret pour effectuer un zoom arrière, ou sur les flèches vertes pour les cartes adjacentes.


METAR-TAF: